createdAt,value
2023-04-13T00:02:10.778Z,34.99
2023-04-13T00:04:37.553Z,34.86
2023-04-13T00:07:04.218Z,34.79
2023-04-13T00:09:31.143Z,34.75
2023-04-13T00:12:01.518Z,34.92
2023-04-13T00:14:33.981Z,34.93
2023-04-13T00:17:00.939Z,35.17
2023-04-13T00:19:28.543Z,35.43
2023-04-13T00:21:55.104Z,35.21
2023-04-13T00:24:22.031Z,35.26
2023-04-13T00:26:48.727Z,35.06
2023-04-13T00:29:15.621Z,35.11
2023-04-13T00:31:43.713Z,34.98
2023-04-13T00:34:10.398Z,35.13
2023-04-13T00:36:37.219Z,35.24
2023-04-13T00:39:04.270Z,35.83
2023-04-13T00:41:31.520Z,35.79
2023-04-13T00:43:59.154Z,35.87
2023-04-13T00:46:29.604Z,37.31
2023-04-13T00:48:58.249Z,37.00
2023-04-13T00:51:24.930Z,37.09
2023-04-13T00:53:51.618Z,36.58
2023-04-13T00:56:19.205Z,36.54
2023-04-13T00:58:45.817Z,36.56
2023-04-13T01:01:12.522Z,36.75
2023-04-13T01:03:40.081Z,37.13
2023-04-13T01:06:10.125Z,37.32
2023-04-13T01:08:40.090Z,36.94
2023-04-13T01:11:15.371Z,36.88
2023-04-13T01:13:48.647Z,36.63
2023-04-13T01:16:25.435Z,36.47
2023-04-13T01:21:39.268Z,36.37
2023-04-13T01:24:17.992Z,36.03
2023-04-13T01:26:58.481Z,36.45
2023-04-13T01:29:26.761Z,35.93
2023-04-13T01:31:54.418Z,35.74
2023-04-13T01:34:23.317Z,36.22
2023-04-13T01:36:50.341Z,35.67
2023-04-13T01:39:19.382Z,35.85
2023-04-13T01:41:47.731Z,36.34
2023-04-13T01:44:14.529Z,37.87
2023-04-13T01:46:47.743Z,37.15
2023-04-13T01:49:52.498Z,37.13
2023-04-13T01:52:32.459Z,37.51
2023-04-13T01:55:00.842Z,37.87
2023-04-13T01:57:31.218Z,36.94
2023-04-13T02:00:14.285Z,36.29
2023-04-13T02:02:45.186Z,36.27
2023-04-13T02:05:12.422Z,36.23
2023-04-13T02:07:40.018Z,35.44
2023-04-13T02:10:06.926Z,34.70
2023-04-13T02:12:34.301Z,35.59
2023-04-13T02:15:01.365Z,35.38
2023-04-13T02:17:29.564Z,35.72
2023-04-13T02:19:57.634Z,34.83
2023-04-13T02:22:24.480Z,35.33
2023-04-13T02:24:51.279Z,36.20
2023-04-13T02:27:18.132Z,36.00
2023-04-13T02:29:44.858Z,35.80
2023-04-13T02:32:11.781Z,35.63
2023-04-13T02:34:38.765Z,36.49
2023-04-13T02:37:09.463Z,36.96
2023-04-13T02:39:37.395Z,36.76
2023-04-13T02:42:05.561Z,36.23
2023-04-13T02:44:34.094Z,36.18
2023-04-13T02:47:01.519Z,36.74
2023-04-13T02:49:28.413Z,36.79
2023-04-13T02:52:31.516Z,36.76
2023-04-13T02:55:03.093Z,36.00
2023-04-13T02:57:42.257Z,37.25
2023-04-13T03:00:10.813Z,37.30
2023-04-13T03:02:47.063Z,37.26
2023-04-13T03:05:16.715Z,38.03
2023-04-13T03:07:46.664Z,37.66
2023-04-13T03:10:14.130Z,37.25
2023-04-13T03:12:42.748Z,37.49
2023-04-13T03:15:12.111Z,37.22
2023-04-13T03:17:40.866Z,37.98
2023-04-13T03:20:11.144Z,37.85
2023-04-13T03:22:39.649Z,37.97
2023-04-13T03:25:08.392Z,38.06
2023-04-13T03:27:38.487Z,38.75
2023-04-13T03:30:08.156Z,39.84
2023-04-13T03:32:44.915Z,39.56
2023-04-13T03:35:12.009Z,39.10
2023-04-13T03:37:43.493Z,39.58
2023-04-13T03:40:27.694Z,39.71
2023-04-13T03:42:55.788Z,39.47
2023-04-13T03:45:25.394Z,39.16
2023-04-13T03:47:55.529Z,39.15
2023-04-13T03:50:23.750Z,39.17
2023-04-13T03:52:52.188Z,38.87
2023-04-13T03:55:19.150Z,38.94
2023-04-13T03:57:49.437Z,38.99
2023-04-13T04:00:20.492Z,39.28
2023-04-13T04:03:01.220Z,39.14
2023-04-13T04:05:36.675Z,38.90
2023-04-13T04:08:04.884Z,39.39
2023-04-13T04:10:31.663Z,39.13
2023-04-13T04:12:59.560Z,39.40
2023-04-13T04:15:27.866Z,39.77
2023-04-13T04:18:00.779Z,40.32
2023-04-13T04:20:28.719Z,39.55
2023-04-13T04:23:01.047Z,39.50
2023-04-13T04:25:33.471Z,39.90
2023-04-13T04:28:02.410Z,40.35
2023-04-13T04:30:33.905Z,40.11
2023-04-13T04:33:02.757Z,40.13
2023-04-13T04:35:34.651Z,40.07
2023-04-13T04:38:04.495Z,39.86
2023-04-13T04:40:36.890Z,40.60
2023-04-13T04:43:06.447Z,40.77
2023-04-13T04:45:52.181Z,40.01
2023-04-13T04:48:20.484Z,39.72
2023-04-13T04:50:49.022Z,39.76
2023-04-13T04:53:17.374Z,39.84
2023-04-13T04:55:46.498Z,39.83
2023-04-13T04:58:23.444Z,39.39
2023-04-13T05:00:56.819Z,39.43
2023-04-13T05:03:23.887Z,38.89
2023-04-13T05:05:57.827Z,39.44
2023-04-13T05:08:30.640Z,39.21
2023-04-13T05:10:57.479Z,39.20
2023-04-13T05:13:24.189Z,39.51
2023-04-13T05:16:10.820Z,38.65
2023-04-13T05:18:45.959Z,38.28
2023-04-13T05:21:24.445Z,38.31
2023-04-13T05:23:58.205Z,38.38
2023-04-13T05:26:25.656Z,38.51
2023-04-13T05:28:54.604Z,38.00
2023-04-13T05:31:24.719Z,38.90
2023-04-13T05:33:52.891Z,39.46
2023-04-13T05:36:19.610Z,38.23
2023-04-13T05:38:47.804Z,38.12
2023-04-13T05:41:20.058Z,37.23
2023-04-13T05:43:46.933Z,37.27
2023-04-13T05:46:13.728Z,36.80
2023-04-13T05:48:42.061Z,36.47
2023-04-13T05:51:09.288Z,36.02
2023-04-13T05:53:36.571Z,36.35
2023-04-13T05:56:03.542Z,35.59
2023-04-13T05:58:31.814Z,35.92
2023-04-13T06:01:12.835Z,35.56
2023-04-13T06:03:40.050Z,34.34
2023-04-13T06:06:07.051Z,34.83
2023-04-13T06:08:34.660Z,35.02
2023-04-13T06:11:01.645Z,33.83
2023-04-13T06:13:28.554Z,33.97
2023-04-13T06:15:55.236Z,33.68
2023-04-13T06:18:22.336Z,34.21
2023-04-13T06:20:48.983Z,34.32
2023-04-13T06:23:15.816Z,33.52
2023-04-13T06:25:42.644Z,34.23
2023-04-13T06:28:12.352Z,33.49
2023-04-13T06:30:42.284Z,33.85
2023-04-13T06:33:12.620Z,34.07
2023-04-13T06:35:41.101Z,33.77
2023-04-13T06:38:10.139Z,33.47
2023-04-13T06:40:48.691Z,32.14
2023-04-13T06:43:26.413Z,32.39
2023-04-13T06:46:14.520Z,31.54
2023-04-13T06:48:44.202Z,30.92
2023-04-13T06:51:12.924Z,31.26
2023-04-13T06:53:42.133Z,31.30
2023-04-13T06:56:08.912Z,31.77
2023-04-13T06:58:36.966Z,31.40
2023-04-13T07:01:04.431Z,30.06
2023-04-13T07:03:34.084Z,30.65
2023-04-13T07:06:02.713Z,30.57
2023-04-13T07:08:29.583Z,31.43
2023-04-13T07:10:57.673Z,31.53
2023-04-13T07:13:32.680Z,29.74
2023-04-13T07:15:59.713Z,30.52
2023-04-13T07:18:27.000Z,30.14
2023-04-13T07:20:54.415Z,29.65
2023-04-13T07:23:24.760Z,29.96
2023-04-13T07:25:51.884Z,29.71
2023-04-13T07:28:23.357Z,29.05
2023-04-13T07:30:53.687Z,28.49
2023-04-13T07:33:21.039Z,28.51
2023-04-13T07:35:51.548Z,29.11
2023-04-13T07:38:18.403Z,29.11
2023-04-13T07:40:45.913Z,29.83
2023-04-13T07:43:12.849Z,28.40
2023-04-13T07:45:42.604Z,27.31
2023-04-13T07:48:09.892Z,27.98
2023-04-13T07:50:42.814Z,27.95
2023-04-13T07:53:13.637Z,27.93
2023-04-13T07:55:41.432Z,28.19
2023-04-13T07:58:09.281Z,27.20
2023-04-13T08:00:36.917Z,28.25
2023-04-13T08:03:06.404Z,27.33
2023-04-13T08:05:36.723Z,27.61
2023-04-13T08:08:03.549Z,28.08
2023-04-13T08:10:30.621Z,28.24
2023-04-13T08:13:00.305Z,26.64
2023-04-13T08:15:27.330Z,27.69
2023-04-13T08:17:54.596Z,27.42
2023-04-13T08:20:23.021Z,26.86
2023-04-13T08:22:52.965Z,27.02
2023-04-13T08:25:20.934Z,26.33
2023-04-13T08:27:47.862Z,26.67
2023-04-13T08:30:14.725Z,27.46
2023-04-13T08:33:07.841Z,26.71
2023-04-13T08:35:39.161Z,26.74
2023-04-13T08:38:09.319Z,26.22
2023-04-13T08:40:40.760Z,25.62
2023-04-13T08:43:13.312Z,27.00
2023-04-13T08:45:43.563Z,26.43
2023-04-13T08:48:11.749Z,26.30
2023-04-13T08:50:40.310Z,26.30
2023-04-13T08:53:09.284Z,26.16
2023-04-13T08:55:43.087Z,26.31
2023-04-13T08:58:12.368Z,25.87
2023-04-13T09:00:41.804Z,25.63
2023-04-13T09:03:14.077Z,25.49
2023-04-13T09:05:45.744Z,25.10
2023-04-13T09:08:14.265Z,25.02
2023-04-13T09:10:45.875Z,24.71
2023-04-13T09:13:12.840Z,25.95
2023-04-13T09:15:41.175Z,26.30
2023-04-13T09:18:18.948Z,26.15
2023-04-13T09:20:58.127Z,25.41
2023-04-13T09:23:24.791Z,25.22
2023-04-13T09:26:04.163Z,25.94
2023-04-13T09:28:31.018Z,26.06
2023-04-13T09:31:04.542Z,27.07
2023-04-13T09:33:34.153Z,26.53
2023-04-13T09:36:08.988Z,25.95
2023-04-13T09:38:35.825Z,25.65
2023-04-13T09:41:03.021Z,25.77
2023-04-13T09:43:39.740Z,25.22
2023-04-13T09:46:14.039Z,24.07
2023-04-13T09:48:41.144Z,25.23
2023-04-13T09:51:08.736Z,24.32
2023-04-13T09:53:49.770Z,24.45
2023-04-13T09:56:17.401Z,24.91
2023-04-13T09:58:45.116Z,24.41
2023-04-13T10:01:12.166Z,23.37
2023-04-13T10:03:39.069Z,24.44
2023-04-13T10:06:07.868Z,23.53
2023-04-13T10:08:38.898Z,23.62
2023-04-13T10:11:08.703Z,23.43
2023-04-13T10:13:37.864Z,24.30
2023-04-13T10:16:19.804Z,22.92
2023-04-13T10:18:53.226Z,23.32
2023-04-13T10:21:20.159Z,23.13
2023-04-13T10:23:46.976Z,22.96
2023-04-13T10:26:13.963Z,23.31
2023-04-13T10:28:49.849Z,22.32
2023-04-13T10:31:16.965Z,22.48
2023-04-13T10:33:47.409Z,22.93
2023-04-13T10:36:14.128Z,21.58
2023-04-13T10:38:44.650Z,22.82
2023-04-13T10:41:22.759Z,22.63
2023-04-13T10:43:59.716Z,22.20
2023-04-13T10:46:26.803Z,23.28
2023-04-13T10:48:59.390Z,21.81
2023-04-13T10:51:27.618Z,22.68
2023-04-13T10:54:04.247Z,22.50
2023-04-13T10:56:31.062Z,22.67
2023-04-13T10:58:57.951Z,22.18
2023-04-13T11:01:25.422Z,22.78
2023-04-13T11:04:04.112Z,23.34
2023-04-13T11:06:38.544Z,22.85
2023-04-13T11:09:07.069Z,23.46
2023-04-13T11:11:36.219Z,22.79
2023-04-13T11:14:03.880Z,22.93
2023-04-13T11:16:31.678Z,23.23
2023-04-13T11:19:02.797Z,22.56
2023-04-13T11:21:30.153Z,21.87
2023-04-13T11:24:02.750Z,22.56
2023-04-13T11:26:38.204Z,22.30
2023-04-13T11:29:05.329Z,22.14
2023-04-13T11:31:39.268Z,21.46
2023-04-13T11:34:06.785Z,21.52
2023-04-13T11:36:33.600Z,22.50
2023-04-13T11:39:02.029Z,22.13
2023-04-13T11:41:30.254Z,21.64
2023-04-13T11:43:57.195Z,20.82
2023-04-13T11:46:27.105Z,21.05
2023-04-13T11:48:54.992Z,21.27
2023-04-13T11:51:22.364Z,20.90
2023-04-13T11:53:50.634Z,20.86
2023-04-13T11:56:18.248Z,21.36
2023-04-13T11:58:45.013Z,20.76
2023-04-13T12:01:20.247Z,20.47
2023-04-13T12:06:48.736Z,20.71
2023-04-13T12:09:17.932Z,19.58
2023-04-13T12:11:52.040Z,19.77
2023-04-13T12:19:43.369Z,19.19
2023-04-13T12:22:12.133Z,19.40
2023-04-13T12:24:40.160Z,18.97
2023-04-13T12:27:17.044Z,19.83
2023-04-13T12:29:44.776Z,19.47
2023-04-13T12:32:15.102Z,19.64
2023-04-13T12:34:42.595Z,19.97
2023-04-13T12:37:34.637Z,19.65
2023-04-13T12:40:01.883Z,20.44
2023-04-13T12:42:28.666Z,19.98
2023-04-13T12:45:38.742Z,19.69
2023-04-13T12:48:06.634Z,20.36
2023-04-13T12:50:33.768Z,19.11
2023-04-13T12:53:00.360Z,19.78
2023-04-13T12:55:27.249Z,19.23
2023-04-13T12:57:53.883Z,18.95
2023-04-13T13:00:21.230Z,19.04
2023-04-13T13:02:52.163Z,19.29
2023-04-13T13:05:23.717Z,18.30
2023-04-13T13:07:50.525Z,18.91
2023-04-13T13:12:48.930Z,17.99
2023-04-13T13:15:43.520Z,18.58
2023-04-13T13:18:11.413Z,17.34
2023-04-13T13:20:41.595Z,17.78
2023-04-13T13:23:12.467Z,17.59
2023-04-13T13:25:42.432Z,17.53
2023-04-13T13:28:14.592Z,17.76
2023-04-13T13:30:42.421Z,18.40
2023-04-13T13:33:09.211Z,18.92
2023-04-13T13:35:35.987Z,18.70
2023-04-13T13:38:03.384Z,19.47
2023-04-13T13:40:30.081Z,19.73
2023-04-13T13:42:56.865Z,18.40
2023-04-13T13:45:23.857Z,18.83
2023-04-13T13:47:52.218Z,18.36
2023-04-13T13:50:21.739Z,18.57
2023-04-13T13:53:03.080Z,19.17
2023-04-13T13:55:37.055Z,19.13
2023-04-13T13:58:03.869Z,19.17
2023-04-13T14:00:31.172Z,19.50
2023-04-13T14:02:57.900Z,20.07
2023-04-13T14:05:24.818Z,19.46
2023-04-13T14:07:51.470Z,19.59
2023-04-13T14:10:18.205Z,19.58
2023-04-13T14:12:47.385Z,19.71
2023-04-13T14:15:15.722Z,19.83
2023-04-13T14:17:42.554Z,19.30
2023-04-13T14:20:10.495Z,18.96
2023-04-13T14:22:37.941Z,18.82
2023-04-13T14:25:06.089Z,17.99
2023-04-13T14:27:33.116Z,18.31
2023-04-13T14:29:59.915Z,18.16
2023-04-13T14:32:27.019Z,18.59
2023-04-13T14:34:53.698Z,18.45
2023-04-13T14:37:20.465Z,18.26
2023-04-13T14:39:47.091Z,18.32
2023-04-13T14:42:13.879Z,18.04
2023-04-13T14:44:40.551Z,17.35
2023-04-13T14:47:08.953Z,18.25
2023-04-13T14:49:36.225Z,17.69
2023-04-13T14:52:03.678Z,18.07
2023-04-13T14:54:30.526Z,18.84
2023-04-13T14:56:57.941Z,18.89
2023-04-13T14:59:25.347Z,18.89
2023-04-13T15:01:52.140Z,19.00
2023-04-13T15:04:19.741Z,21.48
2023-04-13T15:06:49.394Z,20.71
2023-04-13T15:09:16.176Z,20.69
2023-04-13T15:11:42.887Z,20.26
2023-04-13T15:14:09.475Z,21.15
2023-04-13T15:16:36.554Z,20.63
2023-04-13T15:19:04.127Z,20.36
2023-04-13T15:21:31.765Z,19.37
2023-04-13T15:23:58.447Z,20.00
2023-04-13T15:26:26.443Z,19.75
2023-04-13T15:28:53.496Z,19.53
2023-04-13T15:31:21.583Z,19.95
2023-04-13T15:33:48.240Z,19.74
2023-04-13T15:36:16.152Z,20.32
2023-04-13T15:38:43.262Z,19.98
2023-04-13T15:41:11.346Z,19.53
2023-04-13T15:43:38.351Z,20.41
2023-04-13T15:46:05.316Z,20.23
2023-04-13T15:48:32.335Z,20.17
2023-04-13T15:51:00.880Z,19.80
2023-04-13T15:53:29.110Z,20.41
2023-04-13T15:55:56.938Z,20.33
2023-04-13T15:58:23.662Z,20.25
2023-04-13T16:01:03.724Z,20.69
2023-04-13T16:03:31.801Z,20.57
2023-04-13T16:05:59.551Z,20.76
2023-04-13T16:08:26.189Z,20.63
2023-04-13T16:10:54.595Z,20.55
2023-04-13T16:13:22.185Z,21.01
2023-04-13T16:15:53.297Z,21.33
2023-04-13T16:18:21.885Z,22.00
2023-04-13T16:20:49.695Z,21.29
2023-04-13T16:23:17.531Z,21.43
2023-04-13T16:25:44.210Z,20.64
2023-04-13T16:28:10.881Z,20.79
2023-04-13T16:30:37.770Z,20.99
2023-04-13T16:33:05.674Z,21.61
2023-04-13T16:35:33.220Z,21.40
2023-04-13T16:38:00.006Z,21.67
2023-04-13T16:40:26.681Z,21.79
2023-04-13T16:42:53.292Z,21.52
2023-04-13T16:45:20.292Z,21.47
2023-04-13T16:47:47.051Z,21.48
2023-04-13T16:50:16.191Z,20.97
2023-04-13T16:52:43.010Z,21.21
2023-04-13T16:55:14.142Z,21.25
2023-04-13T16:57:42.030Z,21.02
2023-04-13T17:00:10.245Z,21.15
2023-04-13T17:02:38.176Z,21.44
2023-04-13T17:05:08.671Z,21.63
2023-04-13T17:07:36.806Z,21.54
2023-04-13T17:10:04.456Z,22.57
2023-04-13T17:12:31.425Z,21.76
2023-04-13T17:14:58.606Z,21.85
2023-04-13T17:17:25.354Z,22.31
2023-04-13T17:19:53.801Z,21.77
2023-04-13T17:22:22.781Z,21.86
2023-04-13T17:24:49.750Z,21.94
2023-04-13T17:27:16.595Z,21.80
2023-04-13T17:29:43.440Z,22.24
2023-04-13T17:32:10.198Z,22.35
2023-04-13T17:34:37.216Z,22.46
2023-04-13T17:37:03.848Z,22.66
2023-04-13T17:39:30.485Z,22.51
2023-04-13T17:41:58.040Z,22.63
2023-04-13T17:44:24.808Z,22.79
2023-04-13T17:46:54.294Z,23.44
2023-04-13T17:49:22.208Z,23.42
2023-04-13T17:51:49.081Z,22.96
2023-04-13T17:54:16.391Z,23.03
2023-04-13T17:56:43.297Z,23.04
2023-04-13T17:59:14.537Z,23.38
2023-04-13T18:01:43.201Z,23.12
2023-04-13T18:04:11.320Z,23.13
2023-04-13T18:06:39.609Z,23.65
2023-04-13T18:09:06.567Z,22.71
2023-04-13T18:11:33.601Z,23.14
2023-04-13T18:14:01.303Z,23.30
2023-04-13T18:16:28.129Z,23.07
2023-04-13T18:18:54.796Z,23.10
2023-04-13T18:21:21.368Z,24.38
2023-04-13T18:23:48.202Z,23.24
2023-04-13T18:26:15.901Z,23.34
2023-04-13T18:28:42.788Z,23.35
2023-04-13T18:31:09.693Z,23.18
2023-04-13T18:33:36.387Z,24.11
2023-04-13T18:36:03.144Z,23.73
2023-04-13T18:38:29.686Z,24.05
2023-04-13T18:40:56.294Z,23.85
2023-04-13T18:43:23.379Z,24.45
2023-04-13T18:45:50.082Z,23.58
2023-04-13T18:48:16.853Z,24.08
2023-04-13T18:50:44.375Z,23.95
2023-04-13T18:53:11.052Z,24.18
2023-04-13T18:55:38.192Z,24.98
2023-04-13T18:58:04.901Z,23.92
2023-04-13T19:00:32.424Z,23.96
2023-04-13T19:03:00.060Z,23.79
2023-04-13T19:05:27.812Z,24.14
2023-04-13T19:07:58.866Z,23.80
2023-04-13T19:10:26.576Z,23.65
2023-04-13T19:12:53.653Z,23.78
2023-04-13T19:15:22.171Z,23.78
2023-04-13T19:17:50.530Z,23.91
2023-04-13T19:20:17.541Z,25.08
2023-04-13T19:22:44.262Z,26.72
2023-04-13T19:25:14.791Z,26.88
2023-04-13T19:27:43.114Z,27.02
2023-04-13T19:30:10.433Z,27.93
2023-04-13T19:32:37.574Z,27.96
2023-04-13T19:35:05.398Z,28.15
2023-04-13T19:37:32.582Z,28.56
2023-04-13T19:39:59.306Z,28.63
2023-04-13T19:42:26.255Z,29.15
2023-04-13T19:44:52.940Z,29.92
2023-04-13T19:47:19.805Z,29.68
2023-04-13T19:49:46.556Z,29.68
2023-04-13T19:52:16.401Z,29.98
2023-04-13T19:54:43.753Z,29.79
2023-04-13T19:57:11.217Z,29.39
2023-04-13T19:59:39.740Z,29.32
2023-04-13T20:02:06.975Z,29.53
2023-04-13T20:04:33.954Z,30.19
2023-04-13T20:07:01.306Z,30.09
2023-04-13T20:09:28.286Z,29.27
2023-04-13T20:11:54.951Z,29.36
2023-04-13T20:14:21.888Z,29.37
2023-04-13T20:16:48.647Z,29.69
2023-04-13T20:19:15.611Z,29.51
2023-04-13T20:21:42.389Z,29.37
2023-04-13T20:24:09.300Z,29.77
2023-04-13T20:26:35.956Z,29.91
2023-04-13T20:29:03.639Z,29.67
2023-04-13T20:31:32.583Z,29.34
2023-04-13T20:33:59.476Z,29.26
2023-04-13T20:36:27.156Z,29.11
2023-04-13T20:38:54.763Z,28.93
2023-04-13T20:41:21.928Z,29.61
2023-04-13T20:43:50.748Z,29.60
2023-04-13T20:46:17.491Z,29.42
2023-04-13T20:51:15.858Z,29.62
2023-04-13T20:53:43.033Z,29.90
2023-04-13T20:56:09.763Z,30.10
2023-04-13T20:58:37.475Z,30.54
2023-04-13T21:01:04.680Z,29.82
2023-04-13T21:03:32.362Z,30.06
2023-04-13T21:05:59.655Z,29.93
2023-04-13T21:08:27.435Z,29.71
2023-04-13T21:10:54.092Z,29.65
2023-04-13T21:13:21.892Z,30.02
2023-04-13T21:15:48.449Z,30.86
2023-04-13T21:18:15.359Z,30.10
2023-04-13T21:20:43.592Z,30.20
2023-04-13T21:23:10.718Z,30.67
2023-04-13T21:25:37.378Z,30.75
2023-04-13T21:28:04.178Z,30.85
2023-04-13T21:30:31.066Z,30.92
2023-04-13T21:32:57.740Z,31.54
2023-04-13T21:35:24.379Z,31.10
2023-04-13T21:37:50.994Z,32.29
2023-04-13T21:40:18.424Z,31.15
2023-04-13T21:42:45.094Z,30.81
2023-04-13T21:45:11.819Z,30.94
2023-04-13T21:47:38.467Z,30.41
2023-04-13T21:50:05.828Z,31.08
2023-04-13T21:52:32.533Z,31.97
2023-04-13T21:54:59.936Z,31.75
2023-04-13T21:57:26.799Z,31.25
2023-04-13T21:59:54.554Z,31.64
2023-04-13T22:02:21.610Z,32.07
2023-04-13T22:04:48.241Z,31.61
2023-04-13T22:07:14.948Z,32.61
2023-04-13T22:09:41.722Z,32.00
2023-04-13T22:12:10.785Z,31.90
2023-04-13T22:14:37.496Z,32.19
2023-04-13T22:17:04.112Z,32.21
2023-04-13T22:19:30.857Z,32.52
2023-04-13T22:21:57.530Z,32.54
2023-04-13T22:24:24.207Z,31.72
2023-04-13T22:26:51.313Z,32.12
2023-04-13T22:29:17.992Z,32.13
2023-04-13T22:31:45.849Z,31.69
2023-04-13T22:34:12.631Z,32.75
2023-04-13T22:36:39.415Z,32.75
2023-04-13T22:39:05.977Z,32.44
2023-04-13T22:41:32.803Z,32.83
2023-04-13T22:43:59.385Z,32.87
2023-04-13T22:46:26.455Z,33.29
2023-04-13T22:48:53.293Z,33.14
2023-04-13T22:51:20.157Z,33.51
2023-04-13T22:53:49.796Z,33.23
2023-04-13T22:56:16.614Z,32.67
2023-04-13T22:58:43.431Z,32.58
2023-04-13T23:01:10.218Z,32.67
2023-04-13T23:03:36.934Z,32.66
2023-04-13T23:06:06.559Z,32.55
2023-04-13T23:08:33.242Z,32.61
2023-04-13T23:11:09.809Z,32.64
2023-04-13T23:13:36.902Z,33.47
2023-04-13T23:16:05.178Z,33.51
2023-04-13T23:18:31.975Z,33.77
2023-04-13T23:20:58.544Z,33.69
2023-04-13T23:23:27.278Z,33.84
2023-04-13T23:25:53.876Z,34.12
2023-04-13T23:28:20.838Z,34.03
2023-04-13T23:30:47.493Z,34.61
2023-04-13T23:33:14.112Z,35.55
2023-04-13T23:35:40.716Z,34.52
2023-04-13T23:38:07.476Z,35.02
2023-04-13T23:40:34.299Z,37.25
2023-04-13T23:43:01.013Z,36.05
2023-04-13T23:45:28.601Z,35.53
2023-04-13T23:47:55.654Z,34.94
2023-04-13T23:50:22.471Z,35.43
2023-04-13T23:52:49.148Z,36.27
2023-04-13T23:55:16.301Z,35.42
2023-04-13T23:57:43.012Z,35.11
